Time;durP1;ratioP1;P1;durP2;ratioP2;P2;SDS_P1;SDS_P2;PMS_P1;PMS_P2;Temp;Humidity;BMP_temperature;BMP_pressure;BME280_temperature;BME280_humidity;BME280_pressure;Samples;Min_cycle;Max_cycle;Signal;HPM_P1;HPM_P2
2022/09/28 00:01:49;;;;;;;2.60;1.40;;;10.90;20.50;;;;;;5098592;28;20418;-73
2022/09/28 00:04:15;;;;;;;3.40;1.50;;;10.90;22.30;;;;;;5089727;28;20422;-73
2022/09/28 00:06:41;;;;;;;2.33;1.20;;;10.80;26.00;;;;;;5098676;28;20479;-73
2022/09/28 00:09:06;;;;;;;4.50;1.20;;;10.70;24.30;;;;;;5092333;28;20204;-71
2022/09/28 00:11:32;;;;;;;2.37;1.10;;;10.70;34.10;;;;;;5100445;28;20183;-72
2022/09/28 00:14:01;;;;;;;2.13;1.20;;;10.60;38.40;;;;;;5099689;28;20213;-72
2022/09/28 00:16:32;;;;;;;2.27;1.10;;;10.60;38.40;;;;;;5104626;28;20223;-72
2022/09/28 00:18:58;;;;;;;2.53;1.13;;;10.60;38.50;;;;;;5091877;28;20512;-71
2022/09/28 00:21:26;;;;;;;2.70;1.30;;;10.60;38.60;;;;;;5092033;28;20500;-72
2022/09/28 00:24:12;;;;;;;2.60;1.37;;;10.50;38.30;;;;;;5092048;28;20326;-72
2022/09/28 00:26:57;;;;;;;2.33;1.13;;;10.50;43.50;;;;;;5092573;28;20401;-71
2022/09/28 00:29:27;;;;;;;3.67;1.33;;;10.50;43.60;;;;;;5092746;28;20932;-71
2022/09/28 00:31:58;;;;;;;3.73;1.30;;;10.50;50.20;;;;;;5092345;28;20413;-71
2022/09/28 00:34:25;;;;;;;1.87;1.30;;;10.50;54.50;;;;;;5093023;28;20588;-71
2022/09/28 00:36:51;;;;;;;2.60;1.50;;;10.50;58.90;;;;;;5092008;28;20413;-71
2022/09/28 00:39:17;;;;;;;3.00;1.57;;;10.60;58.40;;;;;;5092326;28;20426;-71
2022/09/28 00:41:44;;;;;;;3.00;1.40;;;10.60;62.80;;;;;;5092516;28;20167;-71
2022/09/28 00:44:25;;;;;;;2.03;1.53;;;10.60;59.70;;;;;;5096193;28;20416;-72
2022/09/28 00:47:11;;;;;;;3.33;1.53;;;10.60;65.90;;;;;;5103749;28;20461;-72
2022/09/28 00:49:46;;;;;;;3.17;1.53;;;10.60;62.80;;;;;;5072490;28;20445;-72
2022/09/28 00:52:16;;;;;;;4.50;1.80;;;10.60;68.00;;;;;;5084496;28;20493;-71
2022/09/28 00:54:45;;;;;;;1.70;1.30;;;10.70;73.80;;;;;;5091972;28;20442;-72
2022/09/28 00:57:12;;;;;;;2.60;1.53;;;10.60;72.80;;;;;;5092125;28;20399;-71
2022/09/28 00:59:38;;;;;;;2.20;1.50;;;10.60;75.60;;;;;;5092105;28;20409;-72
2022/09/28 01:02:04;;;;;;;3.20;1.50;;;10.60;77.90;;;;;;5091827;28;20422;-72
2022/09/28 01:04:30;;;;;;;3.50;1.70;;;10.50;78.90;;;;;;5091535;28;20405;-72
2022/09/28 01:06:57;;;;;;;7.67;1.40;;;10.50;81.50;;;;;;5091673;28;20168;-72
2022/09/28 01:09:24;;;;;;;2.87;1.50;;;10.50;84.00;;;;;;5091813;28;20437;-71
2022/09/28 01:11:50;;;;;;;4.13;1.60;;;10.50;89.60;;;;;;5091681;28;20991;-72
2022/09/28 01:14:16;;;;;;;2.63;1.70;;;10.60;89.30;;;;;;5097410;28;20574;-72
2022/09/28 01:17:01;;;;;;;4.50;1.30;;;10.60;91.60;;;;;;5103587;28;20532;-71
2022/09/28 01:19:50;;;;;;;3.20;1.60;;;10.60;90.40;;;;;;5112460;28;20825;-72
2022/09/28 01:22:33;;;;;;;3.80;1.60;;;10.60;92.20;;;;;;5111985;28;20895;-72
2022/09/28 01:25:05;;;;;;;2.33;1.70;;;10.60;91.40;;;;;;5109935;28;20415;-71
2022/09/28 01:27:41;;;;;;;3.83;1.50;;;10.60;93.10;;;;;;5089899;28;20449;-72
2022/09/28 01:30:18;;;;;;;5.83;1.70;;;10.60;93.10;;;;;;5071350;28;20504;-72
2022/09/28 01:33:03;;;;;;;4.20;1.67;;;10.60;94.10;;;;;;5071381;28;20911;-72
2022/09/28 01:35:43;;;;;;;6.23;1.80;;;10.70;91.50;;;;;;5070767;28;20492;-72
2022/09/28 01:38:14;;;;;;;4.43;1.90;;;10.60;91.60;;;;;;5071357;28;20426;-72
2022/09/28 01:40:40;;;;;;;6.93;1.40;;;10.60;93.80;;;;;;5070666;28;20407;-72
2022/09/28 01:43:13;;;;;;;2.30;1.60;;;10.60;95.20;;;;;;5072317;28;20505;-72
2022/09/28 01:45:49;;;;;;;7.90;2.00;;;10.60;96.80;;;;;;5099850;28;20912;-72
2022/09/28 01:48:21;;;;;;;6.03;2.50;;;10.70;96.60;;;;;;5110696;28;20444;-72
2022/09/28 01:50:52;;;;;;;2.23;1.80;;;10.70;97.60;;;;;;5110972;28;20417;-72
2022/09/28 01:53:34;;;;;;;1.80;1.60;;;10.70;97.30;;;;;;5111796;28;20438;-72
2022/09/28 01:56:07;;;;;;;4.13;1.97;;;10.70;97.50;;;;;;5110843;28;20776;-71
2022/09/28 01:59:02;;;;;;;4.43;1.80;;;10.70;99.00;;;;;;5097193;28;20414;-72
2022/09/28 02:01:32;;;;;;;3.10;1.70;;;10.70;99.30;;;;;;5072686;28;20410;-72
2022/09/28 02:04:16;;;;;;;3.80;1.57;;;10.70;97.90;;;;;;5090894;28;20417;-71
2022/09/28 02:06:52;;;;;;;4.57;1.80;;;10.70;97.80;;;;;;5090613;28;20455;-71
2022/09/28 02:09:24;;;;;;;2.73;1.60;;;10.80;99.30;;;;;;5090698;28;20439;-71
2022/09/28 02:11:57;;;;;;;3.00;2.03;;;10.80;99.30;;;;;;5090922;28;20800;-71
2022/09/28 02:14:24;;;;;;;4.47;2.00;;;10.80;99.40;;;;;;5097721;28;20542;-71
2022/09/28 02:16:53;;;;;;;4.60;2.03;;;10.90;99.90;;;;;;5100815;28;20452;-72
2022/09/28 02:19:21;;;;;;;5.23;2.00;;;11.00;99.90;;;;;;5111361;28;20437;-71
2022/09/28 02:21:56;;;;;;;5.30;1.90;;;11.00;99.40;;;;;;5109094;28;20419;-71
2022/09/28 02:24:41;;;;;;;3.60;1.80;;;11.00;99.80;;;;;;5111043;28;20425;-71
2022/09/28 02:27:28;;;;;;;5.73;2.20;;;11.00;99.90;;;;;;5110710;28;20937;-71
2022/09/28 02:29:54;;;;;;;4.67;2.00;;;11.00;99.50;;;;;;5111190;28;20424;-71
2022/09/28 02:32:19;;;;;;;8.93;2.03;;;11.00;99.90;;;;;;5110799;28;20428;-72
2022/09/28 02:34:45;;;;;;;3.23;1.90;;;11.00;99.40;;;;;;5111334;28;20233;-71
2022/09/28 02:37:11;;;;;;;4.00;2.20;;;11.10;99.50;;;;;;5110400;28;20221;-71
2022/09/28 02:39:37;;;;;;;2.93;2.00;;;11.10;99.50;;;;;;5110822;28;20164;-71
2022/09/28 02:42:20;;;;;;;3.50;2.13;;;11.50;99.90;;;;;;5110756;28;20178;-72
2022/09/28 02:45:12;;;;;;;3.60;2.40;;;11.10;99.50;;;;;;5104271;28;20179;-71
2022/09/28 02:48:07;;;;;;;3.40;2.13;;;11.10;99.50;;;;;;5100625;28;20430;-71
2022/09/28 02:50:51;;;;;;;2.17;1.80;;;11.00;99.40;;;;;;5090153;28;20736;-71
2022/09/28 02:53:38;;;;;;;4.43;2.00;;;11.00;99.40;;;;;;5090757;28;20833;-71
2022/09/28 02:56:26;;;;;;;7.53;1.80;;;10.90;99.30;;;;;;5090063;28;20901;-72
2022/09/28 02:59:06;;;;;;;2.23;1.40;;;10.90;99.40;;;;;;5089013;28;20434;-72
2022/09/28 03:01:50;;;;;;;3.43;1.73;;;10.90;99.40;;;;;;5090063;28;20402;-72
2022/09/28 03:04:52;;;;;;;5.87;1.30;;;10.90;99.90;;;;;;5090613;28;20409;-72
2022/09/28 03:07:20;;;;;;;2.13;1.33;;;11.00;99.40;;;;;;5089944;28;20401;-72
2022/09/28 03:09:58;;;;;;;3.33;1.40;;;11.00;99.90;;;;;;5090189;28;20492;-71
2022/09/28 03:12:28;;;;;;;2.77;1.60;;;11.00;99.40;;;;;;5090089;28;20408;-72
2022/09/28 03:15:12;;;;;;;4.20;1.50;;;11.00;99.50;;;;;;5098381;28;20459;-71
2022/09/28 03:17:37;;;;;;;2.33;1.60;;;11.00;99.60;;;;;;5107466;28;20435;-71
2022/09/28 03:20:04;;;;;;;2.20;1.40;;;11.00;99.40;;;;;;5110963;28;20401;-71
2022/09/28 03:22:29;;;;;;;4.60;1.60;;;10.90;99.30;;;;;;5110052;28;20220;-71
2022/09/28 03:24:55;;;;;;;2.70;1.57;;;10.90;99.40;;;;;;5108890;28;20413;-71
2022/09/28 03:27:20;;;;;;;2.10;1.43;;;10.90;98.20;;;;;;5090375;28;20195;-72
2022/09/28 03:29:46;;;;;;;1.93;1.27;;;10.80;99.40;;;;;;5093579;28;20262;-72
2022/09/28 03:32:11;;;;;;;2.00;1.40;;;10.90;99.40;;;;;;5093593;28;20211;-71
2022/09/28 03:34:37;;;;;;;2.07;1.70;;;10.90;99.40;;;;;;5094228;28;20191;-71
2022/09/28 03:37:03;;;;;;;6.37;1.60;;;;;;;;;;5093323;28;20178;-72
2022/09/28 03:39:28;;;;;;;3.37;1.40;;;10.90;98.20;;;;;;5093939;28;20195;-71
2022/09/28 03:41:54;;;;;;;3.77;1.60;;;10.90;99.40;;;;;;5085021;28;21163;-71
2022/09/28 03:44:19;;;;;;;7.30;1.30;;;10.90;99.40;;;;;;5099814;28;20194;-71
2022/09/28 03:46:45;;;;;;;4.60;2.10;;;10.90;99.90;;;;;;5105353;27;20266;-71
2022/09/28 03:49:11;;;;;;;2.50;1.33;;;11.00;99.90;;;;;;5114397;28;20633;-72
2022/09/28 03:51:36;;;;;;;2.50;1.30;;;11.00;99.50;;;;;;5113076;28;20408;-71
2022/09/28 03:54:02;;;;;;;1.47;1.30;;;11.00;99.40;;;;;;5090216;28;20283;-71
2022/09/28 03:56:28;;;;;;;1.43;1.33;;;11.00;99.40;;;;;;5072483;28;20180;-72
2022/09/28 03:58:53;;;;;;;3.10;1.50;;;11.00;99.40;;;;;;5073327;28;20200;-71
2022/09/28 04:01:19;;;;;;;6.33;2.00;;;11.00;99.40;;;;;;5072569;28;20176;-72
2022/09/28 04:03:45;;;;;;;3.00;1.90;;;11.00;99.40;;;;;;5073549;28;20267;-72
2022/09/28 04:06:11;;;;;;;3.00;1.60;;;11.00;99.40;;;;;;5072525;28;20169;-72
2022/09/28 04:08:37;;;;;;;1.93;1.30;;;10.90;99.40;;;;;;5073201;28;20960;-71
2022/09/28 04:11:02;;;;;;;2.20;1.40;;;10.90;99.40;;;;;;5072154;28;20414;-72
2022/09/28 04:13:29;;;;;;;3.57;1.50;;;10.90;99.40;;;;;;5077140;28;20217;-71
2022/09/28 04:15:56;;;;;;;3.10;1.40;;;10.90;99.40;;;;;;5095609;28;21613;-71
2022/09/28 04:18:22;;;;;;;1.87;1.60;;;10.90;99.40;;;;;;5093019;28;20988;-72
2022/09/28 04:20:58;;;;;;;2.20;1.50;;;10.90;99.40;;;;;;5092512;28;20818;-71
2022/09/28 04:23:23;;;;;;;1.33;1.20;;;10.80;99.40;;;;;;5093247;28;20402;-71
2022/09/28 04:25:52;;;;;;;2.23;1.40;;;10.80;99.30;;;;;;5091228;28;20782;-72
2022/09/28 04:31:02;;;;;;;4.67;1.80;;;10.70;99.60;;;;;;5092339;28;20396;-71
2022/09/28 04:33:28;;;;;;;2.70;1.60;;;10.80;99.90;;;;;;5093017;28;20405;-72
2022/09/28 04:35:53;;;;;;;7.10;1.80;;;10.90;99.90;;;;;;5092257;28;20446;-72
2022/09/28 04:38:19;;;;;;;3.20;1.47;;;10.90;99.90;;;;;;5092492;28;20658;-71
2022/09/28 04:40:48;;;;;;;2.77;1.40;;;10.80;99.80;;;;;;5092090;28;20597;-71
2022/09/28 04:43:13;;;;;;;6.97;1.70;;;10.90;99.90;;;;;;5092691;28;20182;-71
2022/09/28 04:45:39;;;;;;;11.53;1.80;;;10.80;99.90;;;;;;5101246;28;20414;-72
2022/09/28 04:48:06;;;;;;;7.23;1.93;;;10.90;99.90;;;;;;5102192;28;20218;-71
2022/09/28 04:50:32;;;;;;;3.07;1.47;;;10.80;99.90;;;;;;5091501;28;20184;-71
2022/09/28 04:52:59;;;;;;;1.50;1.30;;;10.80;99.90;;;;;;5092264;28;20785;-71
2022/09/28 04:55:27;;;;;;;3.47;1.80;;;10.80;99.80;;;;;;5091933;28;20200;-71
2022/09/28 04:57:53;;;;;;;4.57;1.70;;;10.70;99.90;;;;;;5092630;28;20467;-71
2022/09/28 05:00:18;;;;;;;3.90;1.83;;;10.70;99.90;;;;;;5091903;28;20402;-71
2022/09/28 05:02:44;;;;;;;2.40;1.83;;;10.70;99.90;;;;;;5092498;28;20171;-71
2022/09/28 05:05:10;;;;;;;3.37;1.90;;;10.70;99.90;;;;;;5092242;28;20634;-72
2022/09/28 05:07:35;;;;;;;3.37;1.60;;;10.60;99.90;;;;;;5091951;28;20191;-72
2022/09/28 05:10:01;;;;;;;2.73;1.90;;;10.60;99.90;;;;;;5091890;28;20757;-71
2022/09/28 05:12:26;;;;;;;5.17;1.67;;;10.50;99.90;;;;;;5091746;28;20175;-71
2022/09/28 05:14:52;;;;;;;3.33;1.80;;;10.40;99.90;;;;;;5100295;28;20285;-72
2022/09/28 05:17:17;;;;;;;3.97;2.40;;;10.30;99.90;;;;;;5104858;28;20167;-72
2022/09/28 05:19:43;;;;;;;4.27;2.20;;;10.30;99.90;;;;;;5112367;28;20173;-71
2022/09/28 05:22:13;;;;;;;4.77;1.90;;;10.40;99.90;;;;;;5111367;28;20178;-71
2022/09/28 05:24:39;;;;;;;3.33;2.10;;;10.40;99.90;;;;;;5112102;28;20167;-71
2022/09/28 05:27:05;;;;;;;5.50;2.03;;;10.40;99.90;;;;;;5111856;28;20401;-70
2022/09/28 05:29:30;;;;;;;4.10;2.30;;;10.40;99.90;;;;;;5112047;28;20216;-71
2022/09/28 05:31:56;;;;;;;6.80;2.23;;;10.40;99.90;;;;;;5111689;28;20202;-72
2022/09/28 05:34:22;;;;;;;3.37;2.10;;;10.50;99.90;;;;;;5112064;28;20723;-71
2022/09/28 05:36:48;;;;;;;8.30;2.17;;;10.50;99.90;;;;;;5104418;28;20413;-71
2022/09/28 05:39:13;;;;;;;5.20;2.70;;;10.40;99.90;;;;;;5091092;28;20248;-71
2022/09/28 05:41:39;;;;;;;4.03;2.30;;;10.40;99.90;;;;;;5090254;28;20172;-72
2022/09/28 05:44:04;;;;;;;3.47;2.30;;;10.40;99.90;;;;;;5095908;28;20634;-72
2022/09/28 05:46:30;;;;;;;3.00;2.23;;;10.40;99.90;;;;;;5102837;28;20224;-71
2022/09/28 05:48:55;;;;;;;5.80;2.63;;;10.50;99.90;;;;;;5089498;28;20195;-72
2022/09/28 05:51:23;;;;;;;8.77;2.90;;;10.60;99.90;;;;;;5069583;28;20169;-71
2022/09/28 05:53:48;;;;;;;2.90;2.37;;;10.50;99.20;;;;;;5071447;28;20175;-72
2022/09/28 05:56:14;;;;;;;8.40;2.60;;;10.50;99.90;;;;;;5076926;28;20406;-71
2022/09/28 05:58:39;;;;;;;3.20;2.40;;;10.50;99.20;;;;;;5091475;28;20213;-72
2022/09/28 06:01:05;;;;;;;7.03;2.93;;;10.50;99.90;;;;;;5090711;28;20172;-71
2022/09/28 06:03:30;;;;;;;5.90;2.80;;;10.60;99.90;;;;;;5091425;28;20242;-72
2022/09/28 06:06:00;;;;;;;4.80;2.70;;;10.70;99.90;;;;;;5089134;28;20171;-72
2022/09/28 06:08:25;;;;;;;5.30;3.30;;;10.70;99.90;;;;;;5092553;28;20558;-73
2022/09/28 06:10:51;;;;;;;5.67;3.00;;;10.70;99.90;;;;;;5090694;28;20410;-71
2022/09/28 06:13:16;;;;;;;4.40;2.77;;;10.80;99.90;;;;;;5091086;28;20187;-71
2022/09/28 06:15:43;;;;;;;3.97;2.70;;;10.70;99.30;;;;;;5093401;28;20569;-71
2022/09/28 06:18:13;;;;;;;7.57;2.90;;;10.70;99.30;;;;;;5091267;28;20206;-71
2022/09/28 06:20:42;;;;;;;5.30;3.23;;;10.70;99.90;;;;;;5090450;28;20406;-72
2022/09/28 06:23:11;;;;;;;6.20;3.17;;;10.80;99.30;;;;;;5090800;28;20491;-71
2022/09/28 06:25:37;;;;;;;4.00;2.90;;;10.80;99.30;;;;;;5090308;28;20441;-72
2022/09/28 06:28:05;;;;;;;6.97;3.50;;;10.90;99.90;;;;;;5090894;28;20523;-73
2022/09/28 06:30:33;;;;;;;4.70;3.30;;;10.90;99.40;;;;;;5090611;28;20854;-72
2022/09/28 06:33:00;;;;;;;3.60;2.80;;;11.00;99.40;;;;;;5091095;28;20406;-72
2022/09/28 06:35:29;;;;;;;4.83;3.00;;;11.00;99.40;;;;;;5090164;28;20547;-71
2022/09/28 06:37:54;;;;;;;5.30;3.00;;;10.90;95.00;;;;;;5090852;28;20421;-72
2022/09/28 06:40:20;;;;;;;5.70;3.30;;;11.00;99.40;;;;;;5090210;28;20416;-71
2022/09/28 06:42:55;;;;;;;4.50;3.40;;;11.10;96.10;;;;;;5089386;28;20179;-72
2022/09/28 06:45:23;;;;;;;6.87;3.30;;;11.20;93.70;;;;;;5098620;28;20411;-71
2022/09/28 06:47:56;;;;;;;4.13;3.03;;;11.20;96.00;;;;;;5109463;28;20959;-72
2022/09/28 06:50:23;;;;;;;6.10;3.17;;;11.30;95.20;;;;;;5110412;28;20976;-71
2022/09/28 06:52:50;;;;;;;6.80;3.47;;;11.30;96.70;;;;;;5111261;28;20922;-72
2022/09/28 06:55:16;;;;;;;7.60;3.50;;;11.40;90.10;;;;;;5095871;28;20449;-72
2022/09/28 06:57:41;;;;;;;5.60;3.40;;;11.20;93.90;;;;;;5090215;28;20418;-72
2022/09/28 07:00:07;;;;;;;9.13;3.57;;;11.20;97.20;;;;;;5090358;28;20198;-72
2022/09/28 07:02:33;;;;;;;7.20;3.40;;;11.20;95.20;;;;;;5089835;28;20175;-72
2022/09/28 07:04:58;;;;;;;6.63;3.50;;;11.30;98.50;;;;;;5094603;28;20409;-72
2022/09/28 07:07:24;;;;;;;4.43;3.20;;;11.20;90.00;;;;;;5094143;28;20199;-72
2022/09/28 07:09:53;;;;;;;7.07;3.07;;;11.20;89.50;;;;;;5092957;28;20255;-71
2022/09/28 07:12:19;;;;;;;7.80;3.33;;;11.40;92.70;;;;;;5094062;28;20160;-72
2022/09/28 07:14:45;;;;;;;5.43;2.83;;;11.40;90.90;;;;;;5102402;28;20452;-71
2022/09/28 07:17:10;;;;;;;4.43;2.90;;;11.30;92.70;;;;;;5107334;28;20232;-71
2022/09/28 07:19:36;;;;;;;5.40;3.33;;;11.20;85.10;;;;;;5114918;27;20171;-72
2022/09/28 07:22:01;;;;;;;4.97;2.90;;;11.20;92.10;;;;;;5113939;28;20257;-72
2022/09/28 07:24:29;;;;;;;5.53;2.90;;;11.10;90.10;;;;;;5114451;28;20250;-71
2022/09/28 07:26:54;;;;;;;6.73;2.90;;;11.10;92.00;;;;;;5114353;28;20220;-72
2022/09/28 07:29:20;;;;;;;5.40;3.20;;;11.20;86.10;;;;;;5113059;28;20448;-72
2022/09/28 07:31:46;;;;;;;6.70;3.27;;;11.20;85.50;;;;;;5113993;28;20305;-72
2022/09/28 07:34:11;;;;;;;10.10;3.73;;;11.20;95.80;;;;;;5114914;28;20230;-72
2022/09/28 07:36:37;;;;;;;5.43;3.50;;;11.40;98.60;;;;;;5108745;28;20171;-71
2022/09/28 07:39:03;;;;;;;7.90;3.30;;;11.50;99.60;;;;;;5093687;28;20207;-72
2022/09/28 07:41:32;;;;;;;7.13;3.20;;;11.60;90.80;;;;;;5093035;28;20413;-72
2022/09/28 07:44:04;;;;;;;7.20;4.00;;;11.50;72.10;;;;;;5097095;28;20405;-72
2022/09/28 07:46:31;;;;;;;4.60;3.53;;;11.50;88.70;;;;;;5103863;28;20412;-72
2022/09/28 07:48:57;;;;;;;9.53;3.27;;;11.50;77.50;;;;;;5114342;28;20432;-72
2022/09/28 07:51:22;;;;;;;5.87;3.60;;;11.50;90.40;;;;;;5113146;28;20762;-72
2022/09/28 07:53:48;;;;;;;4.07;3.13;;;11.70;84.20;;;;;;5114269;28;20189;-72
2022/09/28 07:56:16;;;;;;;7.20;2.70;;;11.90;86.60;;;;;;5105233;28;20561;-72
2022/09/28 07:58:42;;;;;;;4.80;2.47;;;12.10;88.30;;;;;;5080347;28;20260;-72
2022/09/28 08:01:10;;;;;;;6.60;3.20;;;12.20;77.70;;;;;;5092918;28;20401;-71
2022/09/28 08:03:37;;;;;;;4.47;2.03;;;12.40;68.90;;;;;;5093591;28;20430;-72
2022/09/28 08:06:06;;;;;;;4.40;1.93;;;12.30;39.90;;;;;;5092894;28;20838;-71
2022/09/28 08:08:35;;;;;;;5.20;2.03;;;12.40;40.00;;;;;;5093921;28;20517;-72
2022/09/28 08:11:01;;;;;;;3.87;2.07;;;12.50;40.10;;;;;;5092944;28;20489;-72
2022/09/28 08:13:27;;;;;;;3.87;2.00;;;12.60;40.20;;;;;;5092903;28;20410;-72
2022/09/28 08:15:54;;;;;;;5.30;2.53;;;12.80;40.40;;;;;;5095452;28;20467;-71
2022/09/28 08:18:20;;;;;;;3.50;2.47;;;13.20;40.80;;;;;;5091792;28;20525;-72
2022/09/28 08:23:30;;;;;;;2.87;1.90;;;13.70;35.70;;;;;;5093193;28;20489;-72
2022/09/28 08:25:56;;;;;;;3.57;2.07;;;14.50;8.90;;;;;;5092473;28;20518;-72
2022/09/28 08:28:23;;;;;;;3.87;1.80;;;15.20;1.00;;;;;;5092998;28;20211;-73
2022/09/28 08:30:49;;;;;;;3.33;2.13;;;15.10;1.00;;;;;;5092724;28;20800;-72
2022/09/28 08:33:16;;;;;;;4.57;2.00;;;14.60;1.00;;;;;;5092877;28;20413;-73
2022/09/28 08:35:42;;;;;;;3.27;1.57;;;14.50;1.00;;;;;;5092091;28;20452;-72
2022/09/28 08:38:09;;;;;;;3.63;1.70;;;14.70;1.00;;;;;;5093048;28;20422;-72
2022/09/28 08:40:49;;;;;;;4.40;1.90;;;14.70;1.00;;;;;;5092172;28;20406;-72
2022/09/28 08:43:30;;;;;;;5.43;2.20;;;15.00;1.00;;;;;;5092684;28;20398;-72
2022/09/28 08:45:58;;;;;;;3.93;2.00;;;15.60;1.00;;;;;;5103444;28;20439;-72
2022/09/28 08:48:43;;;;;;;4.80;1.67;;;15.40;1.00;;;;;;5112982;28;20482;-72
2022/09/28 08:51:27;;;;;;;3.47;1.80;;;15.00;1.00;;;;;;5112080;28;20436;-72
2022/09/28 08:53:59;;;;;;;4.30;2.10;;;14.60;1.00;;;;;;5110817;28;20427;-72
2022/09/28 08:56:51;;;;;;;2.67;1.90;;;14.50;1.00;;;;;;5091382;28;20969;-72
2022/09/28 08:59:21;;;;;;;2.97;1.60;;;14.50;1.00;;;;;;5062056;28;20426;-72
2022/09/28 09:01:54;;;;;;;2.63;1.70;;;14.40;1.00;;;;;;5071485;28;20831;-72
2022/09/28 09:04:20;;;;;;;3.53;1.67;;;14.30;1.00;;;;;;5072296;28;20746;-72
2022/09/28 09:07:01;;;;;;;5.50;1.70;;;14.50;1.00;;;;;;5071358;28;20413;-72
2022/09/28 09:09:42;;;;;;;3.03;1.80;;;17.00;1.00;;;;;;5071703;28;20188;-72
2022/09/28 09:12:27;;;;;;;5.23;2.07;;;19.30;1.00;;;;;;5071619;28;20978;-73
2022/09/28 09:15:18;;;;;;;3.93;1.90;;;19.10;1.00;;;;;;5095945;28;20521;-73
2022/09/28 09:18:27;;;;;;;3.27;1.87;;;17.90;1.00;;;;;;5110145;28;20833;-72
2022/09/28 09:21:23;;;;;;;5.10;2.10;;;17.10;1.00;;;;;;5110351;28;20449;-71
2022/09/28 09:24:02;;;;;;;4.60;1.83;;;17.20;1.00;;;;;;5112430;28;21035;-72
2022/09/28 09:26:38;;;;;;;4.50;2.00;;;17.00;1.00;;;;;;5110806;28;20404;-72
2022/09/28 09:29:24;;;;;;;4.63;2.23;;;17.70;1.00;;;;;;5112189;28;20440;-73
2022/09/28 09:32:25;;;;;;;2.17;1.53;;;18.10;1.00;;;;;;5111663;28;20401;-72
2022/09/28 09:34:50;;;;;;;4.10;2.07;;;17.60;1.00;;;;;;5112206;28;20453;-72
2022/09/28 09:37:40;;;;;;;3.47;1.97;;;17.20;1.00;;;;;;5100619;28;20924;-72
2022/09/28 09:40:36;;;;;;;4.30;1.93;;;16.60;1.00;;;;;;5083785;28;20175;-72
2022/09/28 09:43:19;;;;;;;3.70;1.70;;;16.10;1.00;;;;;;5090106;28;20431;-72
2022/09/28 09:45:58;;;;;;;2.93;1.40;;;16.50;1.00;;;;;;5101077;28;20417;-72
2022/09/28 09:48:57;;;;;;;4.23;1.77;;;16.30;1.00;;;;;;5109325;28;20416;-71
2022/09/28 09:51:43;;;;;;;3.33;1.60;;;16.00;1.00;;;;;;5070299;28;20414;-73
2022/09/28 09:54:31;;;;;;;3.63;1.60;;;15.70;1.00;;;;;;5070036;28;20410;-72
2022/09/28 09:57:02;;;;;;;4.07;1.67;;;15.40;1.00;;;;;;5080284;28;20405;-72
2022/09/28 09:59:35;;;;;;;3.57;1.70;;;15.10;1.00;;;;;;5091369;28;20433;-71
2022/09/28 10:02:24;;;;;;;3.93;1.50;;;15.40;1.00;;;;;;5090762;28;20405;-72
2022/09/28 10:05:21;;;;;;;3.10;1.43;;;16.40;1.00;;;;;;5090063;28;20416;-72
2022/09/28 10:07:57;;;;;;;3.83;1.87;;;17.90;1.00;;;;;;5086327;28;20540;-72
2022/09/28 10:10:34;;;;;;;2.60;1.70;;;18.20;1.00;;;;;;5090802;28;20485;-72
2022/09/28 10:13:00;;;;;;;4.73;1.80;;;17.90;1.00;;;;;;5090957;28;20884;-72
2022/09/28 10:15:28;;;;;;;5.03;2.07;;;17.40;1.00;;;;;;5093408;28;20514;-72
2022/09/28 10:17:56;;;;;;;2.37;1.60;;;17.10;1.00;;;;;;5090438;28;20219;-72
2022/09/28 10:20:24;;;;;;;3.87;1.80;;;16.50;1.00;;;;;;5090418;28;20497;-71
2022/09/28 10:22:50;;;;;;;3.20;1.80;;;16.20;1.00;;;;;;5090940;28;20410;-73
2022/09/28 10:25:17;;;;;;;1.70;1.47;;;16.10;1.00;;;;;;5090593;28;20414;-72
2022/09/28 10:27:46;;;;;;;4.80;2.00;;;17.60;1.00;;;;;;5089690;28;20839;-72
2022/09/28 10:30:19;;;;;;;2.30;1.63;;;19.50;1.00;;;;;;5090815;28;20839;-72
2022/09/28 10:32:47;;;;;;;6.40;1.80;;;20.30;1.00;;;;;;5090471;28;20454;-72
2022/09/28 10:35:24;;;;;;;5.73;1.93;;;19.60;1.00;;;;;;5090704;28;20530;-72
2022/09/28 10:38:17;;;;;;;2.93;1.63;;;18.40;1.00;;;;;;5096447;28;20426;-72
2022/09/28 10:40:53;;;;;;;4.10;2.00;;;17.40;1.00;;;;;;5093739;28;20433;-72
2022/09/28 10:43:37;;;;;;;7.77;3.47;;;16.60;1.00;;;;;;5096402;28;20870;-72
2022/09/28 10:46:09;;;;;;;7.47;2.10;;;16.30;1.00;;;;;;5097480;28;20796;-72
2022/09/28 10:48:55;;;;;;;4.93;1.70;;;16.30;1.00;;;;;;5098064;28;20817;-72
2022/09/28 10:51:42;;;;;;;4.93;1.70;;;16.60;1.00;;;;;;5096410;28;20504;-72
2022/09/28 10:54:17;;;;;;;3.60;1.87;;;18.20;1.00;;;;;;5097534;28;20445;-72
2022/09/28 10:56:44;;;;;;;3.03;1.80;;;20.40;1.00;;;;;;5096532;28;20409;-72
2022/09/28 10:59:23;;;;;;;3.23;1.90;;;22.10;1.00;;;;;;5097543;28;20930;-72
2022/09/28 11:01:54;;;;;;;5.10;1.87;;;23.20;1.00;;;;;;5096511;28;20504;-72
2022/09/28 11:04:23;;;;;;;4.63;1.83;;;22.20;1.00;;;;;;5097554;28;20413;-72
2022/09/28 11:06:49;;;;;;;4.23;1.90;;;20.80;1.00;;;;;;5096860;28;20422;-73
2022/09/28 11:09:29;;;;;;;4.53;2.00;;;20.20;1.00;;;;;;5097172;28;20425;-71
2022/09/28 11:12:02;;;;;;;3.53;1.50;;;19.90;1.00;;;;;;5096634;28;20570;-72
2022/09/28 11:14:39;;;;;;;2.50;1.60;;;19.00;1.00;;;;;;5104669;28;20965;-72
2022/09/28 11:17:23;;;;;;;5.10;1.87;;;18.20;1.00;;;;;;5101711;28;20752;-72
2022/09/28 11:19:49;;;;;;;3.50;1.77;;;17.60;1.00;;;;;;5117823;28;20492;-72
2022/09/28 11:22:31;;;;;;;3.40;2.10;;;17.30;1.00;;;;;;5117376;27;20951;-72
2022/09/28 11:25:18;;;;;;;4.50;1.83;;;17.20;1.00;;;;;;5117294;27;20408;-72
2022/09/28 11:27:59;;;;;;;4.17;1.70;;;18.20;1.00;;;;;;5117526;27;20429;-72
2022/09/28 11:30:39;;;;;;;4.00;1.70;;;22.10;1.00;;;;;;5117282;27;20729;-72
2022/09/28 11:33:19;;;;;;;3.93;1.90;;;27.50;1.00;;;;;;5117259;28;20439;-72
2022/09/28 11:36:07;;;;;;;3.47;1.70;;;28.80;1.00;;;;;;5116979;28;20469;-72
2022/09/28 11:38:39;;;;;;;4.67;1.77;;;30.10;1.00;;;;;;5092916;28;20429;-73
2022/09/28 11:41:04;;;;;;;4.17;1.70;;;30.70;1.00;;;;;;5075846;28;20452;-72
2022/09/28 11:43:57;;;;;;;3.50;1.43;;;31.40;1.00;;;;;;5081236;28;20579;-73
2022/09/28 11:46:47;;;;;;;3.08;1.70;;;32.20;1.00;;;;;;5098588;28;20171;-73
2022/09/28 11:49:19;;;;;;;5.63;1.80;;;32.80;1.00;;;;;;5092443;28;20195;-73
2022/09/28 11:51:47;;;;;;;3.55;1.52;;;33.20;1.00;;;;;;5091678;28;20256;-74
2022/09/28 11:54:41;;;;;;;5.22;1.77;;;32.70;1.00;;;;;;5093626;28;20219;-74
2022/09/28 11:57:14;;;;;;;4.22;1.50;;;32.90;1.00;;;;;;5089612;28;20533;-73
2022/09/28 11:59:51;;;;;;;2.83;1.50;;;31.90;1.00;;;;;;5073375;28;20168;-73
2022/09/28 12:02:34;;;;;;;2.60;1.40;;;28.30;1.00;;;;;;5089609;28;20163;-73
2022/09/28 12:05:11;;;;;;;3.10;1.50;;;24.50;1.00;;;;;;5093606;28;20159;-73
2022/09/28 12:07:45;;;;;;;3.03;1.50;;;22.20;1.00;;;;;;5093265;28;20420;-73
2022/09/28 12:10:18;;;;;;;3.77;1.57;;;21.20;1.00;;;;;;5092995;28;20413;-74
2022/09/28 12:12:50;;;;;;;4.67;1.80;;;21.80;1.00;;;;;;5093147;28;20406;-74
2022/09/28 12:15:27;;;;;;;3.93;1.50;;;24.50;1.00;;;;;;5094605;28;20488;-74
2022/09/28 12:17:57;;;;;;;5.63;1.33;;;26.70;1.00;;;;;;5092863;28;20421;-74
2022/09/28 12:20:30;;;;;;;5.97;1.67;;;25.50;1.00;;;;;;5092501;28;20903;-74
2022/09/28 12:23:10;;;;;;;4.80;1.67;;;23.60;1.00;;;;;;5092883;28;20916;-74
2022/09/28 12:25:53;;;;;;;4.80;1.40;;;21.80;1.00;;;;;;5092527;28;20535;-74
2022/09/28 12:28:42;;;;;;;3.30;1.50;;;20.30;1.00;;;;;;5093093;28;20433;-74
2022/09/28 12:31:16;;;;;;;2.30;1.30;;;20.40;1.00;;;;;;5092134;28;20445;-74
2022/09/28 12:33:47;;;;;;;2.20;1.30;;;22.20;1.00;;;;;;5093451;28;20413;-74
2022/09/28 12:36:27;;;;;;;3.70;1.40;;;24.60;1.00;;;;;;5092264;28;20460;-75
2022/09/28 12:39:26;;;;;;;6.70;1.67;;;27.50;1.00;;;;;;5093053;28;20516;-74
2022/09/28 12:42:04;;;;;;;4.97;2.10;;;29.50;1.00;;;;;;5092149;28;20458;-75
2022/09/28 12:44:50;;;;;;;5.80;1.50;;;30.40;1.00;;;;;;5100593;28;20424;-75
2022/09/28 12:47:40;;;;;;;3.10;1.50;;;29.20;1.00;;;;;;5100230;28;20412;-75
2022/09/28 12:50:48;;;;;;;2.67;1.23;;;28.80;1.00;;;;;;5113047;28;20680;-74
2022/09/28 12:53:38;;;;;;;4.47;1.47;;;26.90;1.00;;;;;;5111576;28;20404;-74
2022/09/28 12:56:21;;;;;;;3.20;1.20;;;24.40;1.00;;;;;;5083659;28;20452;-74
2022/09/28 12:59:08;;;;;;;4.43;1.60;;;22.30;1.00;;;;;;5092283;28;20432;-75
2022/09/28 13:02:19;;;;;;;3.10;1.50;;;20.70;1.00;;;;;;5090904;28;20394;-74
2022/09/28 13:04:51;;;;;;;3.57;1.30;;;20.00;1.00;;;;;;5092671;28;20768;-73
2022/09/28 13:07:31;;;;;;;3.27;1.60;;;19.50;1.00;;;;;;5091752;28;20398;-73
2022/09/28 13:10:22;;;;;;;5.17;1.30;;;19.40;1.00;;;;;;5092134;28;20462;-73
2022/09/28 13:13:09;;;;;;;3.70;1.60;;;19.30;1.00;;;;;;5081700;28;20417;-73
2022/09/28 13:15:56;;;;;;;4.40;1.50;;;19.00;1.00;;;;;;5096670;28;20457;-75
2022/09/28 13:18:42;;;;;;;3.80;1.40;;;19.00;1.00;;;;;;5112483;28;20425;-74
2022/09/28 13:21:17;;;;;;;3.27;1.53;;;19.70;1.00;;;;;;5111543;28;20401;-74
2022/09/28 13:23:48;;;;;;;3.57;1.40;;;20.70;1.00;;;;;;5112535;28;20809;-74
2022/09/28 13:26:50;;;;;;;4.53;1.53;;;21.60;1.00;;;;;;5111674;28;20776;-74